createdAt,value
2022-08-18T00:03:56.172Z,23.97
2022-08-18T00:06:20.527Z,23.91
2022-08-18T00:08:47.555Z,23.93
2022-08-18T00:11:15.891Z,23.97
2022-08-18T00:13:42.874Z,23.98
2022-08-18T00:16:09.823Z,23.97
2022-08-18T00:18:36.807Z,23.90
2022-08-18T00:21:03.761Z,23.92
2022-08-18T00:23:31.564Z,23.96
2022-08-18T00:25:59.720Z,23.96
2022-08-18T00:28:26.786Z,23.95
2022-08-18T00:30:54.317Z,23.94
2022-08-18T00:33:21.790Z,23.96
2022-08-18T00:35:48.970Z,23.89
2022-08-18T00:38:23.648Z,23.94
2022-08-18T00:40:54.867Z,23.89
2022-08-18T00:43:34.788Z,23.87
2022-08-18T00:46:02.343Z,23.83
2022-08-18T00:48:29.398Z,23.86
2022-08-18T00:51:00.341Z,23.86
2022-08-18T00:53:53.790Z,23.86
2022-08-18T00:56:28.899Z,23.85
2022-08-18T00:59:04.373Z,23.72
2022-08-18T01:01:33.404Z,23.67
2022-08-18T01:04:07.256Z,23.67
2022-08-18T01:06:41.628Z,23.61
2022-08-18T01:09:09.169Z,23.49
2022-08-18T01:11:38.484Z,23.25
2022-08-18T01:14:08.260Z,23.21
2022-08-18T01:16:57.314Z,23.21
2022-08-18T01:19:45.361Z,23.18
2022-08-18T01:22:24.854Z,23.24
2022-08-18T01:25:13.580Z,23.19
2022-08-18T01:27:42.161Z,23.16
2022-08-18T01:30:13.505Z,23.13
2022-08-18T01:32:42.224Z,23.11
2022-08-18T01:35:13.654Z,23.08
2022-08-18T01:37:41.577Z,23.04
2022-08-18T01:41:21.759Z,23.07
2022-08-18T01:42:57.620Z,22.92
2022-08-18T01:45:25.062Z,22.82
2022-08-18T01:47:52.084Z,22.83
2022-08-18T01:50:18.991Z,22.88
2022-08-18T01:52:46.248Z,22.92
2022-08-18T01:55:14.635Z,22.97
2022-08-18T01:57:45.225Z,22.99
2022-08-18T02:00:14.886Z,22.97
2022-08-18T02:02:44.751Z,22.95
2022-08-18T02:05:24.244Z,22.92
2022-08-18T02:07:53.901Z,22.88
2022-08-18T02:10:21.150Z,22.83
2022-08-18T02:12:48.173Z,22.81
2022-08-18T02:15:15.697Z,22.81
2022-08-18T02:17:44.798Z,22.80
2022-08-18T02:20:14.896Z,22.67
2022-08-18T02:22:43.201Z,22.58
2022-08-18T02:25:11.108Z,22.61
2022-08-18T02:27:38.130Z,22.62
2022-08-18T02:30:08.807Z,22.55
2022-08-18T02:32:35.893Z,22.40
2022-08-18T02:35:03.011Z,22.40
2022-08-18T02:37:33.401Z,22.22
2022-08-18T02:40:00.447Z,22.10
2022-08-18T02:42:29.040Z,22.06
2022-08-18T02:44:56.082Z,22.13
2022-08-18T02:47:23.169Z,22.13
2022-08-18T02:49:50.306Z,22.14
2022-08-18T02:52:17.577Z,21.85
2022-08-18T02:54:44.709Z,22.02
2022-08-18T02:57:13.146Z,21.75
2022-08-18T02:59:41.202Z,21.84
2022-08-18T03:02:09.837Z,21.77
2022-08-18T03:04:36.887Z,21.89
2022-08-18T03:07:06.210Z,21.85
2022-08-18T03:09:34.937Z,21.82
2022-08-18T03:12:02.831Z,21.74
2022-08-18T03:14:30.697Z,21.72
2022-08-18T03:16:57.965Z,21.65
2022-08-18T03:19:29.647Z,21.42
2022-08-18T03:22:02.710Z,21.46
2022-08-18T03:24:31.835Z,21.35
2022-08-18T03:27:00.234Z,21.40
2022-08-18T03:29:31.968Z,21.56
2022-08-18T03:32:04.171Z,21.43
2022-08-18T03:34:32.103Z,21.56
2022-08-18T03:36:59.146Z,21.57
2022-08-18T03:39:28.152Z,21.65
2022-08-18T03:42:00.963Z,21.69
2022-08-18T03:44:37.282Z,21.72
2022-08-18T03:47:08.985Z,21.66
2022-08-18T03:49:36.851Z,21.68
2022-08-18T03:52:07.441Z,21.76
2022-08-18T03:54:34.456Z,21.73
2022-08-18T03:57:01.557Z,21.89
2022-08-18T03:59:32.128Z,21.94
2022-08-18T04:02:00.096Z,22.00
2022-08-18T04:04:28.769Z,22.11
2022-08-18T04:07:00.245Z,22.22
2022-08-18T04:09:30.392Z,22.16
2022-08-18T04:11:58.812Z,22.39
2022-08-18T04:14:33.026Z,22.52
2022-08-18T04:17:00.188Z,22.60
2022-08-18T04:19:27.962Z,22.52
2022-08-18T04:21:57.797Z,22.37
2022-08-18T04:24:28.226Z,22.52
2022-08-18T04:27:03.916Z,22.74
2022-08-18T04:29:31.191Z,22.97
2022-08-18T04:32:03.024Z,23.28
2022-08-18T04:34:30.051Z,23.58
2022-08-18T04:36:57.154Z,23.90
2022-08-18T04:39:24.554Z,24.19
2022-08-18T04:41:52.803Z,24.26
2022-08-18T04:44:20.004Z,24.41
2022-08-18T04:46:53.596Z,24.35
2022-08-18T04:49:26.196Z,24.42
2022-08-18T04:52:36.864Z,24.50
2022-08-18T04:55:02.029Z,24.77
2022-08-18T04:57:33.791Z,24.82
2022-08-18T05:00:02.986Z,24.90
2022-08-18T05:02:33.216Z,25.01
2022-08-18T05:05:03.352Z,25.15
2022-08-18T05:07:30.991Z,24.82
2022-08-18T05:09:58.033Z,24.94
2022-08-18T05:12:26.381Z,25.07
2022-08-18T05:14:54.622Z,25.25
2022-08-18T05:17:21.621Z,25.28
2022-08-18T05:19:51.304Z,25.53
2022-08-18T05:22:24.252Z,25.86
2022-08-18T05:24:58.389Z,26.14
2022-08-18T05:27:25.389Z,26.65
2022-08-18T05:29:52.284Z,26.85
2022-08-18T05:32:41.083Z,26.97
2022-08-18T05:35:12.404Z,26.87
2022-08-18T05:38:04.862Z,27.17
2022-08-18T05:40:32.089Z,27.07
2022-08-18T05:43:00.461Z,27.24
2022-08-18T05:45:27.770Z,27.29
2022-08-18T05:48:02.553Z,27.40
2022-08-18T05:50:35.466Z,27.59
2022-08-18T05:53:13.878Z,27.65
2022-08-18T05:56:09.679Z,27.88
2022-08-18T05:58:46.042Z,28.05
2022-08-18T06:01:24.480Z,28.43
2022-08-18T06:04:35.351Z,28.70
2022-08-18T06:07:05.821Z,29.11
2022-08-18T06:09:39.140Z,29.75
2022-08-18T06:12:17.503Z,30.30
2022-08-18T06:14:45.022Z,30.63
2022-08-18T06:17:34.874Z,31.21
2022-08-18T06:20:32.134Z,31.47
2022-08-18T06:23:14.985Z,31.64
2022-08-18T06:26:04.988Z,32.21
2022-08-18T06:28:54.301Z,32.62
2022-08-18T06:31:41.002Z,32.96
2022-08-18T06:34:32.522Z,33.15
2022-08-18T06:37:18.167Z,33.23
2022-08-18T06:39:51.479Z,33.10
2022-08-18T06:42:26.876Z,33.10
2022-08-18T06:45:07.941Z,33.39
2022-08-18T06:47:43.051Z,33.75
2022-08-18T06:50:32.707Z,33.82
2022-08-18T06:53:01.334Z,34.28
2022-08-18T06:55:37.942Z,33.99
2022-08-18T06:58:22.568Z,34.21
2022-08-18T07:00:55.009Z,33.83
2022-08-18T07:03:35.348Z,33.58
2022-08-18T07:06:06.021Z,33.82
2022-08-18T07:08:36.885Z,34.15
2022-08-18T07:11:27.101Z,34.29
2022-08-18T07:14:17.161Z,34.71
2022-08-18T07:16:58.247Z,34.97
2022-08-18T07:19:30.021Z,35.20
2022-08-18T07:22:07.236Z,35.32
2022-08-18T07:24:51.832Z,35.48
2022-08-18T07:27:42.167Z,35.80
2022-08-18T07:30:20.337Z,36.08
2022-08-18T07:33:21.384Z,36.33
2022-08-18T07:36:00.740Z,36.56
2022-08-18T07:38:49.181Z,36.64
2022-08-18T07:41:47.955Z,36.97
2022-08-18T07:44:45.416Z,36.90
2022-08-18T07:47:28.167Z,37.19
2022-08-18T07:50:18.240Z,37.39
2022-08-18T07:53:32.116Z,37.35
2022-08-18T07:56:05.068Z,37.52
2022-08-18T07:58:51.191Z,37.75
2022-08-18T08:01:47.565Z,37.74
2022-08-18T08:04:35.571Z,37.86
2022-08-18T08:07:42.857Z,37.39
2022-08-18T08:10:28.219Z,37.53
2022-08-18T08:13:37.000Z,37.78
2022-08-18T08:16:17.145Z,38.02
2022-08-18T08:19:31.495Z,37.76
2022-08-18T08:22:28.280Z,37.95
2022-08-18T08:25:42.697Z,38.08
2022-08-18T08:28:30.399Z,38.25
2022-08-18T08:31:37.508Z,38.47
2022-08-18T08:34:19.848Z,38.21
2022-08-18T08:36:48.009Z,38.22
2022-08-18T08:39:25.438Z,38.37
2022-08-18T08:42:31.546Z,38.27
2022-08-18T08:45:02.037Z,38.10
2022-08-18T08:48:08.758Z,37.85
2022-08-18T08:50:50.408Z,37.86
2022-08-18T08:53:39.806Z,37.83
2022-08-18T08:56:09.677Z,37.98
2022-08-18T08:58:59.569Z,38.04
2022-08-18T09:01:37.599Z,37.75
2022-08-18T09:04:33.172Z,37.40
2022-08-18T09:07:38.530Z,37.64
2022-08-18T09:10:46.205Z,37.85
2022-08-18T09:13:38.791Z,38.13
2022-08-18T09:16:21.683Z,38.37
2022-08-18T09:19:25.910Z,38.63
2022-08-18T09:22:03.784Z,38.64
2022-08-18T09:24:40.209Z,38.67
2022-08-18T09:27:15.286Z,38.55
2022-08-18T09:29:53.756Z,38.61
2022-08-18T09:32:22.969Z,38.20
2022-08-18T09:35:15.227Z,38.01
2022-08-18T09:38:13.445Z,37.93
2022-08-18T09:41:11.697Z,36.97
2022-08-18T09:44:11.944Z,37.09
2022-08-18T09:46:44.814Z,37.09
2022-08-18T09:49:24.050Z,37.13
2022-08-18T09:51:59.296Z,36.74
2022-08-18T09:54:32.162Z,36.77
2022-08-18T09:57:07.870Z,36.62
2022-08-18T09:59:35.173Z,37.11
2022-08-18T10:02:32.154Z,37.30
2022-08-18T10:05:22.516Z,37.50
2022-08-18T10:07:57.031Z,37.72
2022-08-18T10:11:01.084Z,37.84
2022-08-18T10:13:48.286Z,37.61
2022-08-18T10:16:31.925Z,37.70
2022-08-18T10:19:33.871Z,38.02
2022-08-18T10:22:10.585Z,38.00
2022-08-18T10:24:52.992Z,37.86
2022-08-18T10:27:49.028Z,38.06
2022-08-18T10:30:36.213Z,38.17
2022-08-18T10:33:57.407Z,38.19
2022-08-18T10:36:58.892Z,38.35
2022-08-18T10:39:42.477Z,38.19
2022-08-18T10:42:23.611Z,38.21
2022-08-18T10:45:38.228Z,38.16
2022-08-18T10:48:05.091Z,38.20
2022-08-18T10:51:02.361Z,38.21
2022-08-18T10:53:52.855Z,38.00
2022-08-18T10:56:40.574Z,38.30
2022-08-18T10:59:16.011Z,38.37
2022-08-18T11:01:49.697Z,38.23
2022-08-18T11:04:34.633Z,38.26
2022-08-18T11:07:19.647Z,38.21
2022-08-18T11:09:57.291Z,38.13
2022-08-18T11:13:04.559Z,38.15
2022-08-18T11:15:53.042Z,38.03
2022-08-18T11:18:43.460Z,37.86
2022-08-18T11:21:51.157Z,37.83
2022-08-18T11:24:26.563Z,37.86
2022-08-18T11:27:02.317Z,37.73
2022-08-18T11:29:33.139Z,37.63
2022-08-18T11:32:05.866Z,37.52
2022-08-18T11:34:51.963Z,37.58
2022-08-18T11:43:16.513Z,37.14
2022-08-18T11:45:54.292Z,37.05
2022-08-18T11:48:37.676Z,36.68
2022-08-18T11:51:17.784Z,36.79
2022-08-18T11:54:50.842Z,36.94
2022-08-18T11:57:39.272Z,36.90
2022-08-18T12:00:53.748Z,37.02
2022-08-18T12:03:37.312Z,37.00
2022-08-18T12:06:27.946Z,37.15
2022-08-18T12:09:06.020Z,37.26
2022-08-18T12:11:41.238Z,37.27
2022-08-18T12:14:31.171Z,37.24
2022-08-18T12:17:01.429Z,37.22
2022-08-18T12:19:31.141Z,37.20
2022-08-18T12:22:01.943Z,37.32
2022-08-18T12:24:36.532Z,37.27
2022-08-18T12:27:20.602Z,37.16
2022-08-18T12:29:50.831Z,37.11
2022-08-18T12:32:41.491Z,37.22
2022-08-18T12:35:09.763Z,37.33
2022-08-18T12:40:26.514Z,37.23
2022-08-18T12:42:55.617Z,37.21
2022-08-18T12:45:24.725Z,37.20
2022-08-18T12:47:52.747Z,37.26
2022-08-18T12:50:20.185Z,37.30
2022-08-18T12:52:59.269Z,37.23
2022-08-18T12:55:28.161Z,37.32
2022-08-18T12:57:55.569Z,37.42
2022-08-18T13:00:29.272Z,37.46
2022-08-18T13:02:57.425Z,37.55
2022-08-18T13:05:26.462Z,37.53
2022-08-18T13:08:05.609Z,37.48
2022-08-18T13:10:42.785Z,37.48
2022-08-18T13:13:15.006Z,37.38
2022-08-18T13:15:55.339Z,37.24
2022-08-18T13:18:28.953Z,37.23
2022-08-18T13:20:58.525Z,37.08
2022-08-18T13:23:27.635Z,37.00
2022-08-18T13:26:01.766Z,36.85
2022-08-18T13:28:36.118Z,36.83
2022-08-18T13:31:18.886Z,36.95
2022-08-18T13:33:58.125Z,37.03
2022-08-18T13:36:46.186Z,36.92
2022-08-18T13:39:20.520Z,37.01
2022-08-18T13:41:49.905Z,36.99
2022-08-18T13:44:19.913Z,37.03
2022-08-18T13:46:48.287Z,36.96
2022-08-18T13:49:18.569Z,36.85
2022-08-18T13:52:00.288Z,36.87
2022-08-18T13:54:33.964Z,36.82
2022-08-18T13:57:03.365Z,36.67
2022-08-18T13:59:33.358Z,36.64
2022-08-18T14:02:08.349Z,36.63
2022-08-18T14:04:36.863Z,36.39
2022-08-18T14:07:08.940Z,36.22
2022-08-18T14:09:38.086Z,36.31
2022-08-18T14:12:15.806Z,36.18
2022-08-18T14:14:52.100Z,36.05
2022-08-18T14:17:22.416Z,36.23
2022-08-18T14:20:10.700Z,36.28
2022-08-18T14:23:01.027Z,36.40
2022-08-18T14:25:47.134Z,36.47
2022-08-18T14:28:15.545Z,36.50
2022-08-18T14:30:50.655Z,36.44
2022-08-18T14:33:34.605Z,36.41
2022-08-18T14:36:11.923Z,36.37
2022-08-18T14:38:40.551Z,36.41
2022-08-18T14:41:11.312Z,36.40
2022-08-18T14:44:10.910Z,36.35
2022-08-18T14:46:30.613Z,36.04
2022-08-18T14:48:59.712Z,36.08
2022-08-18T14:51:33.483Z,36.07
2022-08-18T14:54:01.302Z,36.07
2022-08-18T14:56:33.206Z,36.06
2022-08-18T14:59:01.388Z,35.97
2022-08-18T15:01:28.331Z,35.93
2022-08-18T15:04:18.504Z,35.81
2022-08-18T15:06:56.328Z,35.73
2022-08-18T15:09:29.918Z,35.60
2022-08-18T15:11:58.610Z,35.57
2022-08-18T15:14:33.662Z,35.50
2022-08-18T15:17:03.710Z,35.34
2022-08-18T15:20:00.392Z,35.37
2022-08-18T15:22:44.462Z,35.19
2022-08-18T15:25:29.976Z,35.17
2022-08-18T15:27:58.363Z,35.09
2022-08-18T15:30:25.616Z,35.11
2022-08-18T15:32:54.267Z,35.07
2022-08-18T15:35:21.287Z,34.97
2022-08-18T15:37:51.438Z,35.01
2022-08-18T15:40:30.965Z,34.89
2022-08-18T15:43:09.742Z,34.84
2022-08-18T15:45:43.485Z,34.79
2022-08-18T15:48:25.190Z,34.70
2022-08-18T15:50:53.312Z,34.65
2022-08-18T15:53:30.063Z,34.66
2022-08-18T15:55:57.551Z,34.57
2022-08-18T15:58:26.676Z,34.54
2022-08-18T16:00:54.082Z,34.51
2022-08-18T16:03:21.767Z,34.48
2022-08-18T16:05:54.326Z,34.39
2022-08-18T16:08:23.884Z,34.31
2022-08-18T16:10:52.148Z,34.25
2022-08-18T16:13:20.202Z,34.22
2022-08-18T16:15:48.574Z,34.15
2022-08-18T16:18:17.473Z,34.07
2022-08-18T16:20:44.815Z,34.01
2022-08-18T16:23:12.643Z,33.93
2022-08-18T16:25:43.728Z,33.89
2022-08-18T16:28:13.509Z,33.82
2022-08-18T16:30:41.651Z,33.75
2022-08-18T16:33:08.730Z,33.64
2022-08-18T16:35:37.548Z,33.56
2022-08-18T16:38:07.747Z,33.41
2022-08-18T16:40:35.411Z,33.31
2022-08-18T16:43:02.658Z,33.27
2022-08-18T16:45:31.457Z,33.20
2022-08-18T16:47:58.434Z,33.10
2022-08-18T16:50:26.012Z,33.02
2022-08-18T16:52:53.274Z,32.94
2022-08-18T16:55:20.661Z,32.86
2022-08-18T16:58:06.068Z,32.78
2022-08-18T17:00:55.315Z,32.67
2022-08-18T17:03:43.044Z,32.60
2022-08-18T17:06:15.259Z,32.51
2022-08-18T17:08:43.593Z,32.42
2022-08-18T17:11:19.330Z,32.34
2022-08-18T17:13:48.747Z,32.24
2022-08-18T17:16:17.003Z,32.13
2022-08-18T17:18:43.954Z,32.04
2022-08-18T17:21:15.123Z,31.91
2022-08-18T17:23:42.666Z,31.78
2022-08-18T17:26:19.135Z,31.61
2022-08-18T17:28:52.664Z,31.47
2022-08-18T17:31:24.829Z,31.34
2022-08-18T17:33:57.461Z,31.22
2022-08-18T17:36:41.177Z,31.02
2022-08-18T17:39:12.542Z,30.90
2022-08-18T17:42:01.342Z,30.82
2022-08-18T17:44:31.142Z,30.71
2022-08-18T17:47:00.825Z,30.61
2022-08-18T17:50:27.438Z,30.51
2022-08-18T17:52:54.235Z,30.36
2022-08-18T17:55:28.783Z,30.26
2022-08-18T17:58:09.894Z,30.19
2022-08-18T18:00:36.918Z,30.09
2022-08-18T18:03:04.222Z,29.89
2022-08-18T18:05:41.842Z,29.87
2022-08-18T18:08:09.803Z,29.81
2022-08-18T18:13:32.764Z,29.57
2022-08-18T18:16:21.546Z,29.45
2022-08-18T18:19:14.547Z,29.40
2022-08-18T18:21:57.570Z,29.31
2022-08-18T18:24:34.818Z,29.21
2022-08-18T18:27:02.633Z,29.03
2022-08-18T18:29:38.063Z,28.97
2022-08-18T18:32:24.394Z,28.78
2022-08-18T18:35:17.606Z,28.70
2022-08-18T18:37:57.889Z,28.66
2022-08-18T18:40:31.919Z,28.56
2022-08-18T18:43:20.857Z,28.51
2022-08-18T18:46:22.157Z,28.46
2022-08-18T18:49:28.603Z,28.38
2022-08-18T18:52:25.513Z,28.35
2022-08-18T18:55:06.265Z,28.17
2022-08-18T18:57:48.494Z,28.16
2022-08-18T19:00:35.733Z,28.09
2022-08-18T19:03:09.597Z,28.06
2022-08-18T19:05:49.824Z,28.04
2022-08-18T19:08:28.452Z,27.97
2022-08-18T19:11:07.517Z,27.88
2022-08-18T19:13:39.809Z,27.86
2022-08-18T19:16:23.710Z,27.78
2022-08-18T19:19:35.447Z,27.74
2022-08-18T19:22:03.890Z,27.70
2022-08-18T19:24:41.357Z,27.63
2022-08-18T19:27:34.246Z,27.59
2022-08-18T19:30:07.639Z,27.59
2022-08-18T19:32:39.688Z,27.54
2022-08-18T19:35:12.253Z,27.61
2022-08-18T19:38:04.602Z,27.54
2022-08-18T19:41:04.288Z,27.52
2022-08-18T19:43:55.197Z,27.42
2022-08-18T19:46:34.861Z,27.37
2022-08-18T19:49:26.573Z,27.33
2022-08-18T19:51:59.747Z,27.33
2022-08-18T19:54:40.854Z,27.27
2022-08-18T19:57:12.674Z,27.13
2022-08-18T19:59:55.822Z,27.13
2022-08-18T20:02:49.724Z,27.09
2022-08-18T20:05:26.674Z,27.09
2022-08-18T20:08:07.284Z,27.10
2022-08-18T20:11:13.134Z,27.11
2022-08-18T20:13:44.435Z,27.12
2022-08-18T20:16:24.547Z,27.07
2022-08-18T20:18:57.476Z,27.06
2022-08-18T20:21:42.585Z,26.94
2022-08-18T20:24:48.404Z,26.97
2022-08-18T20:27:55.429Z,26.97
2022-08-18T20:30:51.633Z,26.92
2022-08-18T20:33:25.676Z,26.93
2022-08-18T20:36:24.575Z,26.88
2022-08-18T20:38:54.274Z,26.81
2022-08-18T20:41:26.644Z,26.79
2022-08-18T20:44:13.445Z,26.69
2022-08-18T20:46:51.761Z,26.63
2022-08-18T20:49:47.715Z,26.56
2022-08-18T20:52:35.919Z,26.58
2022-08-18T20:55:17.294Z,26.55
2022-08-18T20:57:44.425Z,26.56
2022-08-18T21:00:22.609Z,26.57
2022-08-18T21:02:59.853Z,26.55
2022-08-18T21:05:35.291Z,26.57
2022-08-18T21:08:17.268Z,26.57
2022-08-18T21:10:48.835Z,26.53
2022-08-18T21:13:39.783Z,26.54
2022-08-18T21:16:10.025Z,26.50
2022-08-18T21:18:37.918Z,26.50
2022-08-18T21:21:26.846Z,26.48
2022-08-18T21:23:58.354Z,26.43
2022-08-18T21:26:27.322Z,26.43
2022-08-18T21:29:11.530Z,26.36
2022-08-18T21:31:44.072Z,26.39
2022-08-18T21:34:34.624Z,26.41
2022-08-18T21:37:06.562Z,26.35
2022-08-18T21:39:34.685Z,26.28
2022-08-18T21:42:02.042Z,26.21
2022-08-18T21:44:42.993Z,26.02
2022-08-18T21:47:21.544Z,25.87
2022-08-18T21:50:18.203Z,25.58
2022-08-18T21:52:55.982Z,25.38
2022-08-18T21:55:33.361Z,25.30
2022-08-18T21:58:02.905Z,25.32
2022-08-18T22:00:34.109Z,25.24
2022-08-18T22:03:25.255Z,25.27
2022-08-18T22:06:03.338Z,25.22
2022-08-18T22:08:34.281Z,25.16
2022-08-18T22:12:02.148Z,25.02
2022-08-18T22:14:54.592Z,24.91
2022-08-18T22:17:55.106Z,24.83
2022-08-18T22:20:44.574Z,24.93
2022-08-18T22:23:32.409Z,25.08
2022-08-18T22:26:17.425Z,25.14
2022-08-18T22:28:50.457Z,25.20
2022-08-18T22:31:21.048Z,25.15
2022-08-18T22:33:48.707Z,25.15
2022-08-18T22:36:19.585Z,25.20
2022-08-18T22:38:47.845Z,25.21
2022-08-18T22:41:16.986Z,25.24
2022-08-18T22:43:44.374Z,25.22
2022-08-18T22:46:13.504Z,25.21
2022-08-18T22:48:52.853Z,25.20
2022-08-18T22:51:23.493Z,25.26
2022-08-18T22:53:51.176Z,25.13
2022-08-18T22:56:22.752Z,25.25
2022-08-18T22:59:20.697Z,25.20
2022-08-18T23:01:50.303Z,25.15
2022-08-18T23:04:19.085Z,25.16
2022-08-18T23:06:52.151Z,25.16
2022-08-18T23:09:31.640Z,25.19
2022-08-18T23:12:05.204Z,25.15
2022-08-18T23:14:34.058Z,25.17
2022-08-18T23:17:02.289Z,25.16
2022-08-18T23:19:31.687Z,25.12
2022-08-18T23:22:00.685Z,25.15
2022-08-18T23:24:27.990Z,25.15
2022-08-18T23:26:55.066Z,24.97
2022-08-18T23:29:22.577Z,25.00
2022-08-18T23:31:51.624Z,25.03
2022-08-18T23:34:20.674Z,25.07
2022-08-18T23:36:57.203Z,25.05
2022-08-18T23:39:25.341Z,25.01
2022-08-18T23:41:53.821Z,25.06
2022-08-18T23:44:27.288Z,25.02
2022-08-18T23:46:56.573Z,25.02
2022-08-18T23:49:24.112Z,25.00
2022-08-18T23:51:55.453Z,24.97
2022-08-18T23:54:28.952Z,24.98
2022-08-18T23:56:56.709Z,24.96
2022-08-18T23:59:26.284Z,24.92
